Time;durP1;ratioP1;P1;durP2;ratioP2;P2;SDS_P1;SDS_P2;PMS_P1;PMS_P2;Temp;Humidity;BMP_temperature;BMP_pressure;BME280_temperature;BME280_humidity;BME280_pressure;Samples;Min_cycle;Max_cycle;Signal;HPM_P1;HPM_P2
2021/05/25 00:00:43;;;;;;;1.23;0.93;;;;;;;9.76;100.00;100307.34;5035816;28;20079;-63
2021/05/25 00:03:27;;;;;;;1.45;1.00;;;;;;;9.77;100.00;100302.88;5035614;28;20114;-63
2021/05/25 00:06:11;;;;;;;3.03;1.13;;;;;;;9.82;100.00;100301.50;5034372;28;20051;-63
2021/05/25 00:08:55;;;;;;;1.05;0.82;;;;;;;9.79;100.00;100291.09;5034327;28;20080;-63
2021/05/25 00:11:39;;;;;;;2.85;0.90;;;;;;;9.77;100.00;100293.06;5035382;28;20094;-63
2021/05/25 00:14:23;;;;;;;1.98;0.80;;;;;;;9.74;100.00;100292.50;5035374;28;20103;-64
2021/05/25 00:17:07;;;;;;;1.42;1.00;;;;;;;9.70;100.00;100301.75;5035334;28;20099;-63
2021/05/25 00:19:51;;;;;;;1.10;0.60;;;;;;;9.66;100.00;100300.31;5033449;28;20151;-63
2021/05/25 00:22:35;;;;;;;;;;;;;;;9.60;99.75;100296.38;5034301;28;20132;-63
2021/05/25 00:25:20;;;;;;;1.30;0.80;;;;;;;9.54;100.00;100307.59;5035112;28;19920;-63
2021/05/25 00:28:04;;;;;;;2.33;1.02;;;;;;;9.53;98.59;100305.06;5033966;28;20746;-63
2021/05/25 00:30:48;;;;;;;2.13;1.05;;;;;;;9.53;97.76;100302.41;5035017;28;20567;-64
2021/05/25 00:33:31;;;;;;;1.33;0.80;;;;;;;9.52;97.24;100298.06;5033912;28;20083;-64
2021/05/25 00:36:16;;;;;;;1.90;0.82;;;;;;;9.50;98.19;100292.03;5033609;28;20083;-64
2021/05/25 00:39:00;;;;;;;0.52;0.50;;;;;;;9.53;95.21;100295.28;5034477;28;20457;-64
2021/05/25 00:41:44;;;;;;;6.40;1.00;;;;;;;9.52;95.65;100287.41;5034740;28;20556;-64
2021/05/25 00:44:28;;;;;;;1.98;0.80;;;;;;;9.49;95.20;100303.66;5033952;28;20512;-64
2021/05/25 00:47:12;;;;;;;3.55;1.10;;;;;;;9.49;93.29;100293.03;5033606;28;20520;-64
2021/05/25 00:49:55;;;;;;;2.22;0.82;;;;;;;9.47;92.31;100293.16;5033603;28;20048;-64
2021/05/25 00:52:43;;;;;;;1.63;0.90;;;;;;;9.53;89.84;100289.09;5033581;28;20048;-64
2021/05/25 00:55:32;;;;;;;1.55;0.70;;;;;;;9.47;91.61;100289.66;5034456;28;20049;-63
2021/05/25 00:58:16;;;;;;;3.45;0.77;;;;;;;9.57;86.82;100309.16;5019053;28;20095;-64
2021/05/25 01:01:03;;;;;;;3.05;0.77;;;;;;;9.56;87.80;100313.63;5033374;28;20055;-63
2021/05/25 01:03:47;;;;;;;5.53;1.42;;;;;;;9.53;88.04;100316.56;5019074;28;20128;-64
2021/05/25 01:06:31;;;;;;;3.03;0.80;;;;;;;9.47;88.94;100321.59;5034359;28;20045;-64
2021/05/25 01:09:17;;;;;;;1.95;0.70;;;;;;;9.46;87.11;100310.09;5019195;28;20456;-63
2021/05/25 01:12:02;;;;;;;2.42;0.85;;;;;;;9.46;87.21;100314.59;5019541;28;20053;-64
2021/05/25 01:14:52;;;;;;;2.17;0.80;;;;;;;9.51;85.98;100315.00;5019108;28;20095;-63
2021/05/25 01:17:36;;;;;;;1.83;0.80;;;;;;;9.46;86.53;100315.41;5032952;28;20045;-64
2021/05/25 01:20:22;;;;;;;0.60;0.52;;;;;;;9.43;86.61;100310.38;5033062;28;20470;-64
2021/05/25 01:23:08;;;;;;;2.85;0.90;;;;;;;9.37;86.95;100320.72;5033646;28;20417;-64
2021/05/25 01:25:52;;;;;;;1.73;0.82;;;;;;;9.32;88.56;100328.25;5032909;28;20176;-64
2021/05/25 01:28:36;;;;;;;1.52;0.93;;;;;;;9.34;88.09;100323.63;5033829;28;20102;-64
2021/05/25 01:31:21;;;;;;;2.80;0.68;;;;;;;9.30;88.59;100319.56;5032331;28;20111;-65
2021/05/25 01:34:06;;;;;;;4.60;0.75;;;;;;;9.25;89.72;100321.78;5032701;28;20053;-64
2021/05/25 01:36:50;;;;;;;2.22;0.73;;;;;;;9.24;89.61;100325.41;5033689;28;20095;-63
2021/05/25 01:39:34;;;;;;;3.72;1.02;;;;;;;9.19;90.37;100338.28;5032996;28;20048;-64
2021/05/25 01:42:18;;;;;;;3.22;0.95;;;;;;;9.18;89.89;100326.78;5033437;28;20095;-64
2021/05/25 01:45:04;;;;;;;5.60;1.00;;;;;;;9.24;89.74;100341.38;5032427;28;20052;-64
2021/05/25 01:47:48;;;;;;;1.73;0.60;;;;;;;9.32;87.22;100344.22;5032163;28;20115;-64
2021/05/25 01:50:33;;;;;;;1.63;0.80;;;;;;;9.31;86.50;100331.88;5032523;28;20051;-64
2021/05/25 01:53:19;;;;;;;1.48;0.70;;;;;;;9.37;85.56;100342.00;5033384;28;20044;-64
2021/05/25 01:56:03;;;;;;;1.52;0.70;;;;;;;9.38;85.08;100343.69;5033202;28;20044;-64
2021/05/25 01:58:47;;;;;;;1.63;0.63;;;;;;;9.39;84.96;100343.53;5033029;28;20056;-64
2021/05/25 02:01:31;;;;;;;2.17;0.80;;;;;;;9.43;84.28;100334.31;5033529;28;20048;-64
2021/05/25 02:04:14;;;;;;;2.65;0.75;;;;;;;9.45;84.79;100340.34;5032699;28;20560;-64
2021/05/25 02:06:59;;;;;;;6.15;1.00;;;;;;;9.43;85.45;100338.78;5033329;28;20048;-64
2021/05/25 02:09:43;;;;;;;3.70;0.95;;;;;;;9.44;85.33;100340.47;5018194;28;20053;-64
2021/05/25 02:12:27;;;;;;;2.55;0.70;;;;;;;9.42;84.59;100340.63;5018692;28;20138;-64
2021/05/25 02:15:11;;;;;;;3.58;0.93;;;;;;;9.48;84.44;100341.91;5018617;28;20044;-65
2021/05/25 02:17:55;;;;;;;2.38;0.82;;;;;;;9.48;84.30;100345.38;5032193;28;20044;-65
2021/05/25 02:20:41;;;;;;;3.83;0.82;;;;;;;9.49;83.95;100343.56;5018358;28;20051;-65
2021/05/25 02:23:26;;;;;;;2.88;0.70;;;;;;;9.48;83.65;100342.72;5032486;28;20056;-64
2021/05/25 02:26:11;;;;;;;0.60;0.60;;;;;;;9.57;82.96;100346.41;5033037;28;20044;-67
2021/05/25 02:28:55;;;;;;;4.00;0.93;;;;;;;9.63;81.85;100349.38;5032194;28;20048;-64
2021/05/25 02:31:41;;;;;;;4.03;0.82;;;;;;;9.71;81.55;100346.88;5032165;28;20048;-65
2021/05/25 02:34:25;;;;;;;4.97;1.25;;;;;;;9.80;80.79;100361.16;5032220;28;20482;-63
2021/05/25 02:37:09;;;;;;;1.90;0.90;;;;;;;9.86;79.82;100360.59;5033047;28;20100;-66
2021/05/25 02:39:53;;;;;;;4.30;0.73;;;;;;;9.87;79.32;100362.31;5032144;28;20505;-64
2021/05/25 02:42:37;;;;;;;1.65;0.40;;;;;;;9.91;78.71;100372.53;5034327;28;20508;-66
2021/05/25 02:45:21;;;;;;;2.30;0.82;;;;;;;9.95;79.16;100365.09;5035935;28;20440;-65
2021/05/25 02:48:06;;;;;;;2.92;0.73;;;;;;;9.97;79.46;100374.66;5035675;28;20045;-65
2021/05/25 02:50:51;;;;;;;2.13;0.93;;;;;;;10.02;77.97;100371.56;5035566;28;20099;-66
2021/05/25 02:53:35;;;;;;;1.65;0.75;;;;;;;10.01;79.63;100375.22;5035537;28;20103;-65
2021/05/25 02:56:19;;;;;;;3.88;0.90;;;;;;;10.03;78.50;100379.47;5021725;28;20044;-66
2021/05/25 02:59:03;;;;;;;3.05;0.70;;;;;;;10.05;78.58;100374.84;5035345;28;20076;-64
2021/05/25 03:01:47;;;;;;;3.13;1.30;;;;;;;10.05;79.00;100371.31;5035389;28;20051;-66
2021/05/25 03:04:31;;;;;;;1.08;0.57;;;;;;;10.04;78.53;100369.63;5035604;28;20095;-65
2021/05/25 03:07:15;;;;;;;1.45;0.77;;;;;;;10.08;77.37;100366.56;5035738;28;20549;-65
2021/05/25 03:09:59;;;;;;;3.40;0.70;;;;;;;10.07;78.44;100380.00;5021518;28;20091;-65
2021/05/25 03:12:43;;;;;;;1.52;0.65;;;;;;;10.06;78.45;100370.34;5035449;28;20509;-65
2021/05/25 03:15:30;;;;;;;2.63;0.70;;;;;;;10.08;78.10;100377.22;5036383;28;20410;-65
2021/05/25 03:18:15;;;;;;;3.35;0.73;;;;;;;10.14;77.86;100381.16;5034925;28;20049;-66
2021/05/25 03:20:59;;;;;;;2.58;0.68;;;;;;;10.13;78.12;100384.78;5035302;28;20044;-65
2021/05/25 03:23:43;;;;;;;2.67;0.63;;;;;;;10.13;77.42;100392.78;5021539;28;20183;-66
2021/05/25 03:26:26;;;;;;;2.83;0.85;;;;;;;10.14;77.65;100402.47;5034923;28;20468;-67
2021/05/25 03:29:10;;;;;;;4.38;0.82;;;;;;;10.14;78.23;100398.00;5036086;28;20110;-64
2021/05/25 03:31:54;;;;;;;4.07;0.65;;;;;;;10.16;77.66;100401.34;5036067;28;20099;-64
2021/05/25 03:34:38;;;;;;;2.85;0.70;;;;;;;10.20;77.35;100404.59;5035037;28;20044;-65
2021/05/25 03:37:22;;;;;;;2.40;0.80;;;;;;;10.18;77.57;100406.56;5035628;28;20076;-65
2021/05/25 03:40:09;;;;;;;3.72;1.00;;;;;;;10.16;78.25;100406.69;5034663;28;20472;-65
2021/05/25 03:42:54;;;;;;;3.75;1.48;;;;;;;10.18;78.55;100410.03;5034571;28;20536;-64
2021/05/25 03:45:38;;;;;;;3.78;0.80;;;;;;;10.21;77.41;100416.91;5035549;28;20513;-65
2021/05/25 03:48:22;;;;;;;2.70;0.82;;;;;;;10.22;78.11;100418.59;5034518;28;20048;-64
2021/05/25 03:51:06;;;;;;;1.90;0.90;;;;;;;10.18;78.23;100414.53;5035021;28;20053;-65
2021/05/25 03:53:52;;;;;;;2.05;0.80;;;;;;;10.20;77.64;100425.91;5019979;28;20115;-67
2021/05/25 03:56:48;;;;;;;2.63;0.93;;;;;;;10.16;78.32;100419.16;5035528;28;20056;-65
2021/05/25 03:59:33;;;;;;;1.40;0.70;;;;;;;10.17;77.03;100428.81;5035596;28;20071;-64
2021/05/25 04:02:16;;;;;;;1.83;0.80;;;;;;;10.13;78.73;100406.97;5035679;28;20144;-65
2021/05/25 04:05:01;;;;;;;3.95;1.08;;;;;;;10.16;77.41;100413.81;5020241;28;20048;-66
2021/05/25 04:07:45;;;;;;;2.80;0.70;;;;;;;10.16;76.87;100405.81;5034094;28;20099;-64
2021/05/25 04:10:29;;;;;;;1.30;0.60;;;;;;;10.17;76.99;100418.16;5020201;28;20052;-65
2021/05/25 04:13:14;;;;;;;2.33;1.00;;;;;;;10.19;76.52;100406.38;5034368;28;20096;-65
2021/05/25 04:15:58;;;;;;;4.28;0.95;;;;;;;10.21;76.13;100422.25;5034110;28;20406;-64
2021/05/25 04:18:43;;;;;;;2.40;0.82;;;;;;;10.19;76.11;100417.06;5019840;28;20562;-64
2021/05/25 04:21:28;;;;;;;4.03;0.82;;;;;;;10.26;76.00;100434.19;5034177;28;20411;-64
2021/05/25 04:24:12;;;;;;;1.58;0.77;;;;;;;10.23;76.50;100415.81;5034303;28;20060;-65
2021/05/25 04:26:56;;;;;;;4.20;1.00;;;;;;;10.27;75.96;100420.72;5034695;28;20440;-65
2021/05/25 04:29:40;;;;;;;6.93;0.98;;;;;;;10.31;76.18;100432.78;5035016;28;20052;-67
2021/05/25 04:32:24;;;;;;;1.02;0.63;;;;;;;10.34;74.49;100424.50;5034898;28;20560;-65
2021/05/25 04:35:08;;;;;;;3.10;0.90;;;;;;;10.34;74.21;100426.34;5034179;28;20047;-64
2021/05/25 04:37:54;;;;;;;1.45;0.65;;;;;;;10.34;74.86;100421.84;5033835;28;20076;-66
2021/05/25 04:40:42;;;;;;;2.17;1.08;;;;;;;10.34;75.70;100421.84;5020137;28;20560;-66
2021/05/25 04:43:26;;;;;;;2.92;0.77;;;;;;;10.40;74.19;100429.28;5019907;28;20056;-66
2021/05/25 04:46:10;;;;;;;4.68;0.82;;;;;;;10.40;74.84;100434.63;5033935;28;20087;-65
2021/05/25 04:48:54;;;;;;;0.80;0.55;;;;;;;10.42;73.68;100437.97;5034322;28;20128;-66
2021/05/25 04:51:37;;;;;;;5.88;1.17;;;;;;;10.43;73.34;100426.34;5033352;28;20056;-66
2021/05/25 04:54:21;;;;;;;1.92;0.80;;;;;;;10.41;74.13;100422.97;5033208;28;20052;-67
2021/05/25 04:57:05;;;;;;;4.05;0.73;;;;;;;10.43;74.17;100431.66;5033467;28;20127;-67
2021/05/25 04:59:50;;;;;;;3.85;0.60;;;;;;;10.47;73.61;100433.06;5019553;28;20098;-66
2021/05/25 05:02:34;;;;;;;2.17;0.80;;;;;;;10.48;72.74;100426.78;5034396;28;20118;-66
2021/05/25 05:05:18;;;;;;;1.77;0.70;;;;;;;10.50;72.61;100438.13;5019597;28;20398;-66
2021/05/25 05:08:05;;;;;;;3.22;1.00;;;;;;;10.50;73.37;100437.28;5033193;28;20529;-66
2021/05/25 05:10:49;;;;;;;1.73;0.60;;;;;;;10.51;72.41;100439.81;5032765;28;20402;-66
2021/05/25 05:13:33;;;;;;;1.40;0.75;;;;;;;10.54;73.68;100433.38;5033570;28;20130;-66
2021/05/25 05:16:17;;;;;;;1.30;0.75;;;;;;;10.58;73.58;100450.75;5018536;28;20111;-67
2021/05/25 05:19:01;;;;;;;1.90;0.70;;;;;;;10.63;74.51;100449.34;5033074;28;20462;-67
2021/05/25 05:21:45;;;;;;;3.75;0.63;;;;;;;10.54;74.09;100457.34;5032388;28;20048;-66
2021/05/25 05:24:29;;;;;;;4.38;0.93;;;;;;;10.56;75.67;100452.72;5033393;28;20075;-66
2021/05/25 05:27:13;;;;;;;2.45;0.60;;;;;;;10.57;76.06;100444.56;5033148;28;20474;-67
2021/05/25 05:29:57;;;;;;;1.15;0.70;;;;;;;10.57;75.48;100447.22;5032245;28;20052;-66
2021/05/25 05:32:41;;;;;;;1.60;1.02;;;;;;;10.65;74.19;100444.72;5033288;28;20068;-66
2021/05/25 05:35:25;;;;;;;1.65;0.70;;;;;;;10.72;72.62;100432.50;5031946;28;20179;-66
2021/05/25 05:38:10;;;;;;;1.38;0.68;;;;;;;10.75;73.85;100445.56;5033547;28;20422;-66
2021/05/25 05:41:03;;;;;;;2.38;0.80;;;;;;;10.78;70.71;100445.28;5032996;28;20052;-66
2021/05/25 05:43:47;;;;;;;1.65;0.75;;;;;;;10.84;72.42;100442.03;5032830;28;20079;-66
2021/05/25 05:46:31;;;;;;;1.35;0.80;;;;;;;10.88;70.70;100445.28;5018597;28;20084;-66
2021/05/25 05:49:15;;;;;;;4.50;0.75;;;;;;;10.88;70.42;100458.59;5033517;28;20052;-66
2021/05/25 05:51:59;;;;;;;1.63;0.80;;;;;;;10.96;73.50;100443.56;5032507;28;20472;-66
2021/05/25 05:54:43;;;;;;;2.88;1.23;;;;;;;10.91;72.44;100445.84;5032575;28;20056;-66
2021/05/25 05:57:27;;;;;;;1.42;0.70;;;;;;;11.05;73.29;100449.91;5033232;28;20509;-66
2021/05/25 06:00:11;;;;;;;3.17;0.82;;;;;;;11.10;71.21;100453.81;5033548;28;20052;-66
2021/05/25 06:02:55;;;;;;;2.05;0.80;;;;;;;11.15;72.67;100462.22;5032497;28;20129;-66
2021/05/25 06:05:39;;;;;;;3.20;0.98;;;;;;;11.11;73.86;100463.50;5033175;28;20124;-66
2021/05/25 06:08:24;;;;;;;1.67;0.98;;;;;;;10.70;75.11;100479.81;5032024;28;20043;-66
2021/05/25 06:11:09;;;;;;;2.40;0.75;;;;;;;10.41;79.30;100478.94;5032551;28;20052;-65
2021/05/25 06:13:53;;;;;;;1.55;0.90;;;;;;;10.17;81.51;100476.78;5032091;28;20052;-64
2021/05/25 06:16:37;;;;;;;2.08;0.77;;;;;;;9.88;84.79;100481.97;5033146;28;20053;-65
2021/05/25 06:19:21;;;;;;;2.60;1.10;;;;;;;9.73;88.37;100488.66;5036322;28;20087;-65
2021/05/25 06:22:05;;;;;;;3.88;1.10;;;;;;;9.63;90.88;100494.91;5036653;28;20052;-64
2021/05/25 06:24:50;;;;;;;3.83;0.90;;;;;;;9.57;92.33;100482.97;5036418;28;20413;-64
2021/05/25 06:27:35;;;;;;;3.63;1.00;;;;;;;9.57;96.42;100493.63;5036274;28;20094;-64
2021/05/25 06:30:20;;;;;;;3.33;0.93;;;;;;;9.48;98.34;100504.22;5036332;28;20049;-62
2021/05/25 06:33:04;;;;;;;3.00;1.08;;;;;;;9.43;100.00;100493.97;5036942;28;20095;-64
2021/05/25 06:35:51;;;;;;;7.05;1.35;;;;;;;9.49;100.00;100498.75;5037612;28;20103;-64
2021/05/25 06:38:35;;;;;;;1.25;0.75;;;;;;;9.47;100.00;100503.38;5037065;28;20072;-64
2021/05/25 06:41:19;;;;;;;1.27;0.63;;;;;;;9.32;100.00;100520.66;5037128;28;20099;-65
2021/05/25 06:44:03;;;;;;;6.40;1.23;;;;;;;9.29;100.00;100520.06;5022006;28;20064;-64
2021/05/25 06:46:47;;;;;;;3.28;1.63;;;;;;;9.11;100.00;100542.88;5035867;28;20098;-63
2021/05/25 06:49:31;;;;;;;4.57;1.20;;;;;;;9.09;100.00;100528.88;5036909;28;20056;-64
2021/05/25 06:52:15;;;;;;;4.97;1.45;;;;;;;8.99;100.00;100528.78;5035586;28;20505;-63
2021/05/25 06:55:01;;;;;;;2.33;1.17;;;;;;;9.02;100.00;100544.50;5035822;28;20553;-64
2021/05/25 06:57:45;;;;;;;5.03;1.30;;;;;;;9.04;100.00;100544.34;5035603;28;20057;-64
2021/05/25 07:00:29;;;;;;;3.42;0.93;;;;;;;8.98;100.00;100547.53;5035631;28;20061;-63
2021/05/25 07:03:13;;;;;;;2.28;1.38;;;;;;;8.86;100.00;100540.59;5036552;28;20513;-64
2021/05/25 07:05:56;;;;;;;4.30;1.35;;;;;;;9.00;100.00;100551.78;5036612;28;20624;-64
2021/05/25 07:08:40;;;;;;;2.67;1.40;;;;;;;8.96;100.00;100554.81;5036486;28;20510;-64
2021/05/25 07:11:24;;;;;;;2.33;1.40;;;;;;;9.06;100.00;100553.09;5036590;28;20047;-64
2021/05/25 07:14:08;;;;;;;1.42;0.90;;;;;;;9.10;100.00;100570.47;5036211;28;20076;-64
2021/05/25 07:16:52;;;;;;;5.88;1.38;;;;;;;9.08;100.00;100569.75;5036098;28;20107;-64
2021/05/25 07:19:36;;;;;;;5.70;1.85;;;;;;;9.07;100.00;100565.41;5035585;28;20048;-64
2021/05/25 07:22:21;;;;;;;3.47;1.23;;;;;;;9.08;100.00;100578.56;5035072;28;20550;-64
2021/05/25 07:25:06;;;;;;;4.53;1.40;;;;;;;9.19;100.00;100567.88;5036214;28;20111;-63
2021/05/25 07:27:50;;;;;;;5.60;1.10;;;;;;;9.32;100.00;100588.97;5035219;28;20091;-64
2021/05/25 07:30:36;;;;;;;7.65;2.42;;;;;;;9.27;100.00;100596.50;5035986;28;20150;-64
2021/05/25 07:33:20;;;;;;;3.53;1.35;;;;;;;9.22;100.00;100596.03;5035795;28;20048;-64
2021/05/25 07:36:05;;;;;;;3.92;1.85;;;;;;;9.28;100.00;100614.16;5035721;28;20414;-64
2021/05/25 07:38:49;;;;;;;2.22;0.63;;;;;;;9.09;100.00;100612.16;5034580;28;20099;-64
2021/05/25 07:41:34;;;;;;;2.42;1.02;;;;;;;9.27;100.00;100628.44;5035946;28;20137;-64
2021/05/25 07:44:18;;;;;;;4.25;1.25;;;;;;;9.18;100.00;100629.19;5036032;28;20045;-64
2021/05/25 07:47:02;;;;;;;2.95;1.20;;;;;;;9.09;100.00;100638.75;5034761;28;20119;-64
2021/05/25 07:49:46;;;;;;;2.92;1.20;;;;;;;9.27;100.00;100628.44;5034759;28;20060;-64
2021/05/25 07:52:30;;;;;;;4.38;1.10;;;;;;;9.39;100.00;100643.38;5035735;28;20049;-65
2021/05/25 07:55:14;;;;;;;3.65;1.52;;;;;;;9.44;100.00;100646.47;5034686;28;20122;-65
2021/05/25 07:57:59;;;;;;;3.05;1.10;;;;;;;9.39;100.00;100648.69;5035096;28;20481;-64
2021/05/25 08:00:44;;;;;;;5.00;1.00;;;;;;;9.44;100.00;100652.66;5034620;28;20121;-65
2021/05/25 08:03:27;;;;;;;5.53;1.05;;;;;;;9.51;100.00;100660.97;5035794;28;20232;-65
2021/05/25 08:06:12;;;;;;;2.67;0.98;;;;;;;9.51;100.00;100659.16;5020234;28;20155;-65
2021/05/25 08:08:56;;;;;;;5.40;1.40;;;;;;;9.48;100.00;100669.22;5035087;28;20410;-65
2021/05/25 08:11:40;;;;;;;2.33;1.02;;;;;;;9.49;100.00;100665.59;5035419;28;20057;-65
2021/05/25 08:14:24;;;;;;;2.75;0.70;;;;;;;9.54;97.94;100668.69;5033916;28;20095;-65
2021/05/25 08:18:16;;;;;;;1.42;0.82;;;;;;;9.56;98.30;100669.44;5035067;28;20170;-65
2021/05/25 08:20:21;;;;;;;1.92;0.70;;;;;;;9.65;96.84;100666.84;5034711;28;20091;-65
2021/05/25 08:23:09;;;;;;;3.63;1.00;;;;;;;9.74;96.41;100675.84;5035158;28;20126;-65
2021/05/25 08:25:54;;;;;;;1.35;1.05;;;;;;;9.71;94.81;100708.94;5033836;28;20056;-64
2021/05/25 08:28:38;;;;;;;1.85;0.77;;;;;;;9.69;94.76;100681.56;5033693;28;20045;-65
2021/05/25 08:31:22;;;;;;;2.22;1.00;;;;;;;9.77;97.62;100691.59;5033605;28;20099;-65
2021/05/25 08:34:06;;;;;;;3.72;1.10;;;;;;;9.84;96.88;100700.72;5033965;28;20080;-65
2021/05/25 08:36:51;;;;;;;2.05;0.90;;;;;;;9.82;98.30;100705.34;5033868;28;20052;-64
2021/05/25 08:39:35;;;;;;;3.05;1.42;;;;;;;9.76;97.49;100696.06;5034413;28;20048;-65
2021/05/25 08:42:19;;;;;;;1.45;1.00;;;;;;;9.75;97.71;100699.69;5034753;28;20052;-65
2021/05/25 08:45:04;;;;;;;3.05;0.98;;;;;;;9.78;97.33;100701.25;5033747;28;20048;-65
2021/05/25 08:47:50;;;;;;;2.85;1.20;;;;;;;9.90;98.05;100700.22;5019511;28;20125;-64
2021/05/25 08:50:34;;;;;;;3.88;1.08;;;;;;;10.00;95.78;100703.78;5034544;28;20107;-64
2021/05/25 08:53:18;;;;;;;2.08;1.02;;;;;;;10.03;93.31;100706.22;5033553;28;20072;-65
2021/05/25 08:56:03;;;;;;;3.40;1.20;;;;;;;10.16;92.77;100705.06;5033210;28;20191;-64
2021/05/25 08:58:47;;;;;;;3.50;0.93;;;;;;;10.31;91.42;100725.91;5032980;28;20052;-65
2021/05/25 09:01:31;;;;;;;1.92;1.15;;;;;;;10.45;91.12;100730.88;5019463;28;20048;-64
2021/05/25 09:04:17;;;;;;;5.38;1.17;;;;;;;10.78;86.94;100709.31;5019253;28;20056;-64
2021/05/25 09:07:01;;;;;;;4.63;1.20;;;;;;;11.09;84.36;100718.94;5034436;28;20103;-64
2021/05/25 09:09:54;;;;;;;3.00;0.95;;;;;;;11.51;83.82;100715.09;5033261;28;20107;-64
2021/05/25 09:12:41;;;;;;;1.27;0.85;;;;;;;11.58;77.10;100716.22;5032849;28;20118;-64
2021/05/25 09:15:42;;;;;;;3.63;1.42;;;;;;;11.81;77.25;100712.31;5032902;28;20525;-64
2021/05/25 09:18:33;;;;;;;2.60;1.20;;;;;;;11.95;73.50;100709.19;5033654;28;20095;-64
2021/05/25 09:21:32;;;;;;;1.45;0.70;;;;;;;12.18;73.50;100729.28;5032995;28;20519;-65
2021/05/25 09:24:16;;;;;;;3.15;1.65;;;;;;;12.35;72.41;100723.19;5033691;28;20136;-66
2021/05/25 09:27:01;;;;;;;3.92;1.10;;;;;;;12.54;70.47;100739.19;5032572;28;20067;-64
2021/05/25 09:29:48;;;;;;;2.83;0.70;;;;;;;12.75;69.57;100752.34;5032894;28;20052;-65
2021/05/25 09:32:32;;;;;;;2.05;0.80;;;;;;;12.72;66.33;100734.75;5032886;28;20076;-64
2021/05/25 09:35:19;;;;;;;4.15;1.05;;;;;;;12.69;69.99;100713.66;5018886;28;20083;-65
2021/05/25 09:38:29;;;;;;;7.63;1.05;;;;;;;12.58;67.22;100703.13;5032475;28;20103;-64
2021/05/25 09:41:13;;;;;;;1.38;0.50;;;;;;;12.39;69.56;100713.06;5032389;28;20108;-64
2021/05/25 09:43:57;;;;;;;1.33;0.77;;;;;;;12.33;69.91;100706.47;5032651;28;20418;-64
2021/05/25 09:46:47;;;;;;;4.60;1.13;;;;;;;12.29;69.88;100721.09;5033527;28;20056;-65
2021/05/25 09:49:32;;;;;;;4.68;1.15;;;;;;;12.39;70.96;100719.22;5033602;28;20045;-65
2021/05/25 09:52:16;;;;;;;6.82;1.00;;;;;;;12.48;70.87;100707.66;5032631;28;20086;-65
2021/05/25 09:55:09;;;;;;;6.57;1.10;;;;;;;12.45;70.16;100716.00;5032585;28;20179;-65
2021/05/25 09:57:57;;;;;;;2.72;0.80;;;;;;;12.51;68.44;100718.06;5033077;28;20128;-65
2021/05/25 10:00:44;;;;;;;1.77;1.00;;;;;;;12.44;68.63;100708.97;5033760;28;20052;-64
2021/05/25 10:03:29;;;;;;;1.00;0.60;;;;;;;12.41;67.65;100765.38;5032749;28;20556;-64
2021/05/25 10:06:13;;;;;;;4.03;0.85;;;;;;;12.28;68.23;100719.41;5033434;28;20414;-65
2021/05/25 10:08:58;;;;;;;2.90;0.93;;;;;;;12.78;67.53;100714.63;5032201;28;20104;-65
2021/05/25 10:11:43;;;;;;;4.35;0.80;;;;;;;12.97;66.33;100728.78;5032296;28;20076;-65
2021/05/25 10:14:30;;;;;;;4.10;0.93;;;;;;;13.16;66.05;100726.00;5033294;28;20512;-65
2021/05/25 10:17:29;;;;;;;2.83;1.00;;;;;;;13.46;62.68;100723.00;5032524;28;20091;-65
2021/05/25 10:20:14;;;;;;;3.97;1.00;;;;;;;13.92;60.34;100746.88;5020275;28;20056;-65
2021/05/25 10:22:58;;;;;;;3.92;1.15;;;;;;;14.97;61.23;100704.50;5032504;28;20084;-66
2021/05/25 10:25:43;;;;;;;;;;;;;;;14.88;58.22;100734.19;5032654;28;20056;-65
2021/05/25 10:28:27;;;;;;;2.72;0.77;;;;;;;15.05;57.61;100704.56;5033168;28;19936;-65
2021/05/25 10:31:29;;;;;;;4.05;1.50;;;;;;;15.21;54.96;100717.19;5032265;28;20056;-66
2021/05/25 10:34:15;;;;;;;2.42;0.88;;;;;;;14.51;56.31;100722.91;5032198;28;20045;-65
2021/05/25 10:37:01;;;;;;;4.38;1.23;;;;;;;14.97;56.57;100707.19;5033072;28;20052;-65
2021/05/25 10:39:46;;;;;;;4.68;1.38;;;;;;;16.38;52.77;100715.88;5032264;28;20048;-65
2021/05/25 10:42:31;;;;;;;4.72;1.00;;;;;;;16.06;51.48;100746.28;5018198;28;20562;-66
2021/05/25 10:45:16;;;;;;;5.60;1.30;;;;;;;15.94;51.55;100722.56;5033420;28;20125;-66
2021/05/25 10:48:04;;;;;;;1.67;0.70;;;;;;;16.73;48.70;100724.38;5032007;28;20194;-66
2021/05/25 10:50:49;;;;;;;6.65;1.20;;;;;;;17.17;47.87;100701.31;5018573;28;20414;-66
2021/05/25 10:53:33;;;;;;;5.47;1.30;;;;;;;16.71;49.72;100699.47;5018250;28;20132;-66
2021/05/25 10:56:25;;;;;;;3.05;1.10;;;;;;;16.27;52.58;100700.88;5032593;28;20661;-66
2021/05/25 10:59:10;;;;;;;7.97;1.35;;;;;;;15.23;53.58;100705.28;5032417;28;20575;-65
2021/05/25 11:01:55;;;;;;;2.05;0.80;;;;;;;15.23;52.77;100723.25;5032895;28;20048;-65
2021/05/25 11:04:39;;;;;;;5.93;1.92;;;;;;;16.24;50.47;100720.06;5021905;28;20095;-66
2021/05/25 11:07:36;;;;;;;2.50;1.00;;;;;;;16.04;51.71;100723.22;5035540;28;20060;-66
2021/05/25 11:10:29;;;;;;;4.00;1.00;;;;;;;15.90;52.88;100748.13;5035551;28;20045;-66
2021/05/25 11:13:22;;;;;;;4.78;1.48;;;;;;;14.95;54.89;100748.63;5036542;28;20126;-67
2021/05/25 11:16:25;;;;;;;3.50;0.90;;;;;;;13.86;59.96;100822.53;5039499;28;20121;-67
2021/05/25 11:19:11;;;;;;;6.15;1.58;;;;;;;12.49;75.11;100805.63;5039093;28;20564;-65
2021/05/25 11:24:58;;;;;;;3.25;1.70;;;;;;;10.46;91.50;100777.88;5037936;28;20099;-62
2021/05/25 11:27:46;;;;;;;1.50;0.60;;;;;;;10.20;94.68;100765.09;5037742;28;20056;-63
2021/05/25 11:30:31;;;;;;;5.85;1.55;;;;;;;11.55;99.30;100753.84;5035436;28;20068;-64
2021/05/25 11:33:15;;;;;;;2.78;1.08;;;;;;;12.83;87.74;100756.81;5036410;28;20064;-64
2021/05/25 11:36:02;;;;;;;2.22;1.20;;;;;;;13.01;82.66;100755.09;5035335;28;20053;-64
2021/05/25 11:38:49;;;;;;;3.78;1.10;;;;;;;13.95;84.77;100763.50;5020810;28;20045;-64
2021/05/25 11:41:33;;;;;;;2.03;1.10;;;;;;;13.94;78.82;100771.69;5034851;28;20053;-65
2021/05/25 11:44:20;;;;;;;6.57;1.75;;;;;;;13.67;80.69;100769.09;5034853;28;20517;-65
2021/05/25 11:47:06;;;;;;;9.15;1.63;;;;;;;13.07;81.56;100775.06;5034873;28;20104;-65
2021/05/25 11:49:50;;;;;;;4.28;1.42;;;;;;;12.92;81.29;100755.94;5035885;28;20048;-63
2021/05/25 11:52:43;;;;;;;6.55;1.30;;;;;;;13.41;77.38;100752.03;5035674;28;20559;-65
2021/05/25 11:55:29;;;;;;;2.95;1.23;;;;;;;14.19;77.23;100744.13;5034813;28;20505;-65
2021/05/25 11:58:13;;;;;;;3.10;1.20;;;;;;;14.70;70.67;100753.03;5034186;28;20104;-66
2021/05/25 12:00:57;;;;;;;3.72;1.52;;;;;;;15.55;65.81;100743.03;5034321;28;20103;-65
2021/05/25 12:03:42;;;;;;;4.53;1.48;;;;;;;16.26;64.89;100739.53;5034827;28;20048;-66
2021/05/25 12:06:26;;;;;;;4.38;1.08;;;;;;;17.01;60.04;100732.84;5020887;28;20052;-66
2021/05/25 12:09:12;;;;;;;4.38;1.15;;;;;;;16.80;59.36;100744.19;5035742;28;20047;-66
2021/05/25 12:11:57;;;;;;;3.53;1.08;;;;;;;16.44;58.30;100737.56;5035187;28;20048;-65
2021/05/25 12:14:41;;;;;;;4.85;1.25;;;;;;;16.49;58.29;100735.16;5033683;28;20506;-66
2021/05/25 12:17:26;;;;;;;3.35;1.20;;;;;;;17.29;56.18;100742.19;5035139;28;20048;-65
2021/05/25 12:20:16;;;;;;;5.53;1.15;;;;;;;17.56;52.89;100726.38;5034979;28;20548;-66
2021/05/25 12:23:06;;;;;;;5.28;1.00;;;;;;;18.17;48.58;100757.81;5034021;28;20111;-66
2021/05/25 12:25:52;;;;;;;2.20;1.15;;;;;;;17.76;48.66;100735.69;5020228;28;20048;-66
2021/05/25 12:28:37;;;;;;;3.10;1.27;;;;;;;16.81;53.00;100729.75;5034745;28;20406;-66
2021/05/25 12:31:21;;;;;;;6.15;1.10;;;;;;;17.12;50.78;100717.16;5034336;28;20053;-66
2021/05/25 12:34:05;;;;;;;4.80;1.13;;;;;;;17.81;50.20;100714.41;5033948;28;20505;-66
2021/05/25 12:36:58;;;;;;;2.70;1.20;;;;;;;19.85;49.91;100695.38;5034781;28;20063;-66
2021/05/25 12:39:42;;;;;;;3.22;0.82;;;;;;;19.04;40.18;100739.91;5034827;28;20103;-66
2021/05/25 12:42:26;;;;;;;3.00;1.20;;;;;;;18.39;41.07;100758.63;5034097;28;20048;-65
2021/05/25 12:45:12;;;;;;;1.95;0.93;;;;;;;17.94;41.29;100725.47;5033760;28;20111;-66
2021/05/25 12:47:58;;;;;;;2.35;0.60;;;;;;;17.05;43.40;100721.56;5033598;28;20048;-64
2021/05/25 12:50:43;;;;;;;4.85;1.13;;;;;;;16.48;44.48;100722.72;5034482;28;20470;-65
2021/05/25 12:53:27;;;;;;;4.20;0.80;;;;;;;16.88;44.58;100733.41;5033623;28;20052;-66